Time;durP1;ratioP1;P1;durP2;ratioP2;P2;SDS_P1;SDS_P2;PMS_P1;PMS_P2;Temp;Humidity;BMP_temperature;BMP_pressure;BME280_temperature;BME280_humidity;BME280_pressure;Samples;Min_cycle;Max_cycle;Signal;HPM_P1;HPM_P2
2023/10/20 00:00:29;;;;;;;9.35;4.43;;;19.40;65.50;;;;;;5072252;28;20024;-57
2023/10/20 00:02:55;;;;;;;7.40;4.22;;;19.50;65.40;;;;;;5071873;28;20462;-59
2023/10/20 00:05:20;;;;;;;6.88;4.20;;;19.50;65.80;;;;;;5072121;28;20054;-59
2023/10/20 00:07:46;;;;;;;8.07;4.60;;;19.50;65.60;;;;;;5070759;28;20024;-60
2023/10/20 00:10:12;;;;;;;7.68;4.13;;;19.50;65.40;;;;;;5076053;28;20498;-59
2023/10/20 00:12:39;;;;;;;7.75;4.38;;;19.50;65.50;;;;;;5091154;28;20020;-59
2023/10/20 00:15:09;;;;;;;9.52;4.20;;;19.50;65.70;;;;;;5110744;22;20093;-53
2023/10/20 00:17:35;;;;;;;7.75;4.40;;;19.40;65.20;;;;;;5091548;28;20525;-54
2023/10/20 00:20:00;;;;;;;8.40;4.35;;;19.50;65.50;;;;;;5088742;28;20028;-52
2023/10/20 00:22:26;;;;;;;6.53;4.10;;;19.50;65.30;;;;;;5085055;28;20031;-54
2023/10/20 00:24:52;;;;;;;6.05;3.88;;;19.40;65.70;;;;;;5067294;28;20543;-47
2023/10/20 00:27:18;;;;;;;7.85;4.22;;;19.50;65.40;;;;;;5074983;28;20024;-51
2023/10/20 00:29:43;;;;;;;7.05;4.00;;;19.50;65.50;;;;;;5072288;28;20404;-51
2023/10/20 00:32:10;;;;;;;8.13;4.10;;;19.40;65.50;;;;;;5069633;28;20115;-49
2023/10/20 00:34:37;;;;;;;5.45;3.83;;;19.40;65.90;;;;;;5070830;28;20588;-54
2023/10/20 00:37:03;;;;;;;7.30;4.18;;;19.40;65.20;;;;;;5068586;28;20039;-47
2023/10/20 00:39:30;;;;;;;6.95;3.95;;;19.50;65.50;;;;;;5069138;28;20078;-52
2023/10/20 00:41:56;;;;;;;6.93;4.05;;;19.40;65.60;;;;;;5070712;28;20028;-54
2023/10/20 00:44:22;;;;;;;7.22;3.95;;;19.40;65.70;;;;;;5062409;28;20025;-48
2023/10/20 00:46:48;;;;;;;7.18;3.97;;;19.40;65.30;;;;;;5072358;28;20078;-52
2023/10/20 00:49:15;;;;;;;6.10;3.70;;;19.40;65.20;;;;;;5077266;28;20410;-54
2023/10/20 00:51:41;;;;;;;5.88;3.67;;;19.50;65.60;;;;;;5065746;28;20090;-51
2023/10/20 00:54:13;;;;;;;6.60;3.92;;;19.40;65.20;;;;;;5059826;28;20031;-54
2023/10/20 00:56:44;;;;;;;7.13;4.05;;;19.40;65.20;;;;;;5061332;28;20043;-50
2023/10/20 00:59:10;;;;;;;6.65;3.55;;;19.40;65.40;;;;;;5074295;28;20062;-51
2023/10/20 01:01:37;;;;;;;5.88;3.90;;;19.40;66.00;;;;;;5062230;28;20048;-53
2023/10/20 01:04:03;;;;;;;7.20;4.00;;;19.40;66.20;;;;;;5074654;28;20028;-50
2023/10/20 01:06:30;;;;;;;7.15;3.88;;;19.40;66.00;;;;;;5074671;28;20028;-52
2023/10/20 01:08:58;;;;;;;6.43;4.07;;;19.40;66.00;;;;;;5074214;28;20035;-53
2023/10/20 01:11:25;;;;;;;5.63;3.63;;;19.50;65.00;;;;;;5068978;28;20028;-49
2023/10/20 01:13:50;;;;;;;7.47;4.13;;;19.40;65.00;;;;;;5071290;28;20024;-54
2023/10/20 01:16:18;;;;;;;10.35;4.47;;;19.50;65.70;;;;;;5067413;28;20036;-54
2023/10/20 01:18:44;;;;;;;7.00;4.07;;;19.40;65.20;;;;;;5073063;28;20055;-51
2023/10/20 01:21:10;;;;;;;6.95;3.90;;;19.40;65.40;;;;;;5070257;28;20115;-52
2023/10/20 01:23:37;;;;;;;6.47;3.58;;;19.40;66.10;;;;;;5064255;28;20170;-52
2023/10/20 01:26:04;;;;;;;6.05;3.67;;;19.40;66.40;;;;;;5074815;28;20036;-50
2023/10/20 01:28:30;;;;;;;6.47;3.97;;;19.50;65.60;;;;;;5078313;28;20020;-48
2023/10/20 01:30:58;;;;;;;6.72;3.88;;;19.40;65.90;;;;;;5073390;28;20386;-50
2023/10/20 01:33:25;;;;;;;6.10;3.53;;;19.40;66.50;;;;;;5087482;28;20043;-48
2023/10/20 01:35:51;;;;;;;8.20;3.58;;;19.40;66.40;;;;;;5065306;28;20263;-48
2023/10/20 01:38:17;;;;;;;4.80;3.58;;;19.40;66.40;;;;;;5071995;28;21286;-48
2023/10/20 01:40:45;;;;;;;7.50;3.40;;;19.40;66.00;;;;;;5075199;28;20499;-46
2023/10/20 01:43:10;;;;;;;4.60;3.13;;;19.40;66.10;;;;;;5069285;28;20032;-49
2023/10/20 01:45:36;;;;;;;4.80;3.47;;;19.40;66.50;;;;;;5071011;28;20115;-47
2023/10/20 01:48:02;;;;;;;6.00;3.50;;;19.40;65.30;;;;;;5071197;28;20518;-48
2023/10/20 01:50:28;;;;;;;3.78;2.92;;;19.40;65.60;;;;;;5060774;28;20025;-54
2023/10/20 01:52:54;;;;;;;5.15;3.70;;;19.40;65.40;;;;;;5071907;28;20028;-49
2023/10/20 01:55:21;;;;;;;5.57;3.78;;;19.40;64.80;;;;;;5076486;28;20479;-52
2023/10/20 01:57:47;;;;;;;6.70;3.60;;;19.40;64.90;;;;;;5069537;28;20111;-51
2023/10/20 02:00:13;;;;;;;8.00;3.20;;;19.40;64.70;;;;;;5061850;28;20306;-48
2023/10/20 02:02:41;;;;;;;6.82;3.65;;;19.40;64.60;;;;;;5067073;28;20055;-51
2023/10/20 02:05:10;;;;;;;6.53;3.17;;;19.40;64.70;;;;;;5084979;28;20032;-50
2023/10/20 02:07:39;;;;;;;6.75;3.58;;;19.40;64.90;;;;;;5064102;28;20053;-56
2023/10/20 02:10:06;;;;;;;5.73;3.33;;;19.40;64.70;;;;;;5082625;28;20484;-53
2023/10/20 02:12:33;;;;;;;5.55;3.40;;;19.40;65.20;;;;;;5078590;28;20282;-51
2023/10/20 02:14:59;;;;;;;4.88;3.17;;;19.40;64.80;;;;;;5071755;28;20029;-48
2023/10/20 02:17:25;;;;;;;5.30;3.20;;;19.40;64.70;;;;;;5074761;28;20031;-48
2023/10/20 02:19:51;;;;;;;7.47;3.17;;;19.40;64.90;;;;;;5068644;28;20029;-51
2023/10/20 02:22:17;;;;;;;5.18;3.50;;;19.40;65.20;;;;;;5060073;28;20033;-46
2023/10/20 02:24:44;;;;;;;5.15;3.17;;;19.40;65.20;;;;;;5076690;28;20024;-48
2023/10/20 02:27:10;;;;;;;6.00;3.08;;;19.40;64.80;;;;;;5082787;28;20047;-49
2023/10/20 02:29:36;;;;;;;4.20;2.92;;;19.40;65.20;;;;;;5070651;28;20484;-48
2023/10/20 02:32:02;;;;;;;4.63;3.22;;;19.40;65.50;;;;;;5069011;28;20518;-51
2023/10/20 02:34:28;;;;;;;5.35;3.50;;;19.40;65.50;;;;;;5077642;28;20029;-49
2023/10/20 02:36:54;;;;;;;5.18;3.17;;;19.40;65.40;;;;;;5062615;28;20028;-51
2023/10/20 02:39:20;;;;;;;6.88;3.00;;;19.40;65.20;;;;;;5068066;28;20032;-51
2023/10/20 02:41:46;;;;;;;4.10;2.97;;;19.40;65.10;;;;;;5075210;28;20446;-51
2023/10/20 02:44:13;;;;;;;4.20;2.85;;;19.40;65.10;;;;;;5083027;28;20024;-52
2023/10/20 02:46:39;;;;;;;5.95;3.05;;;19.40;65.40;;;;;;5071836;28;20013;-48
2023/10/20 02:49:05;;;;;;;4.85;3.28;;;19.40;65.40;;;;;;5074321;28;20370;-46
2023/10/20 02:51:30;;;;;;;4.20;2.92;;;19.40;65.00;;;;;;5065562;28;20035;-46
2023/10/20 02:53:56;;;;;;;6.53;3.20;;;19.40;64.90;;;;;;5079936;28;20012;-49
2023/10/20 02:56:23;;;;;;;4.68;3.10;;;19.40;65.00;;;;;;5080308;28;20503;-46
2023/10/20 02:58:49;;;;;;;9.35;3.13;;;19.40;65.80;;;;;;5078310;28;20074;-46
2023/10/20 03:01:17;;;;;;;4.40;2.83;;;19.40;65.50;;;;;;5077918;28;20442;-48
2023/10/20 03:03:43;;;;;;;4.90;2.63;;;19.40;65.50;;;;;;5074436;28;20020;-49
2023/10/20 03:06:10;;;;;;;4.90;2.90;;;19.40;65.10;;;;;;5080207;28;20487;-47
2023/10/20 03:08:37;;;;;;;4.60;2.65;;;19.40;65.20;;;;;;5077974;28;20022;-48
2023/10/20 03:11:08;;;;;;;4.45;2.67;;;19.30;65.50;;;;;;5068986;28;20036;-45
2023/10/20 03:13:33;;;;;;;;;;;19.30;65.30;;;;;;5072019;28;20028;-49
2023/10/20 03:15:59;;;;;;;4.70;3.17;;;19.30;65.30;;;;;;5070608;28;19912;-49
2023/10/20 03:18:25;;;;;;;7.75;3.10;;;19.30;65.10;;;;;;5076960;28;20024;-47
2023/10/20 03:20:51;;;;;;;5.00;2.97;;;19.30;66.10;;;;;;5069399;28;20021;-46
2023/10/20 03:23:19;;;;;;;4.78;3.00;;;19.30;64.60;;;;;;5073607;28;20032;-46
2023/10/20 03:25:45;;;;;;;5.10;2.55;;;19.30;65.10;;;;;;5064096;28;20036;-46
2023/10/20 03:28:11;;;;;;;4.40;2.65;;;19.30;64.70;;;;;;5081177;28;20032;-47
2023/10/20 03:30:41;;;;;;;8.07;3.20;;;19.30;65.30;;;;;;5072688;28;20100;-47
2023/10/20 03:33:08;;;;;;;3.53;2.50;;;19.30;65.20;;;;;;5074067;28;20073;-46
2023/10/20 03:35:34;;;;;;;3.92;2.90;;;19.40;65.00;;;;;;5072324;28;20038;-47
2023/10/20 03:38:03;;;;;;;6.82;2.85;;;19.30;65.40;;;;;;5060233;28;20103;-51
2023/10/20 03:40:36;;;;;;;7.30;3.03;;;19.30;65.10;;;;;;5080629;28;20446;-46
2023/10/20 03:43:08;;;;;;;5.05;2.65;;;19.40;65.40;;;;;;5066926;28;20031;-46
2023/10/20 03:45:41;;;;;;;7.32;2.90;;;19.40;65.20;;;;;;5079562;28;20078;-46
2023/10/20 03:48:11;;;;;;;5.32;2.95;;;19.30;64.90;;;;;;5076084;28;20444;-46
2023/10/20 03:50:41;;;;;;;6.10;2.78;;;19.30;64.90;;;;;;5075611;28;20020;-50
2023/10/20 03:53:10;;;;;;;5.80;3.20;;;19.30;65.20;;;;;;5071338;28;20078;-48
2023/10/20 03:55:36;;;;;;;5.10;2.87;;;19.40;64.60;;;;;;5072999;28;20389;-46
2023/10/20 03:58:02;;;;;;;5.07;2.63;;;19.40;64.80;;;;;;5074175;28;20073;-46
2023/10/20 04:00:28;;;;;;;4.57;2.72;;;19.40;64.60;;;;;;5073958;28;20031;-46
2023/10/20 04:02:58;;;;;;;7.88;3.13;;;19.40;64.70;;;;;;5073493;28;20031;-46
2023/10/20 04:05:25;;;;;;;4.75;3.10;;;19.40;65.10;;;;;;5073745;28;20024;-46
2023/10/20 04:07:51;;;;;;;4.22;2.90;;;19.40;64.60;;;;;;5064716;28;20036;-46
2023/10/20 04:10:20;;;;;;;4.13;2.90;;;19.40;65.20;;;;;;5072817;28;20028;-46
2023/10/20 04:12:47;;;;;;;4.43;2.87;;;19.40;64.90;;;;;;5056975;28;20051;-52
2023/10/20 04:15:20;;;;;;;5.57;3.20;;;19.40;64.50;;;;;;5076714;28;20033;-47
2023/10/20 04:17:52;;;;;;;5.20;3.10;;;19.40;64.70;;;;;;5054541;28;20024;-47
2023/10/20 04:20:20;;;;;;;4.38;3.10;;;19.40;64.50;;;;;;5063734;28;20051;-49
2023/10/20 04:22:49;;;;;;;5.90;3.53;;;19.40;64.40;;;;;;5071399;28;20450;-47
2023/10/20 04:25:22;;;;;;;6.03;3.60;;;19.40;64.20;;;;;;5071369;28;20063;-47
2023/10/20 04:27:57;;;;;;;4.43;3.13;;;19.40;64.20;;;;;;5064824;28;20032;-51
2023/10/20 04:50:32;;;;;;;6.15;3.28;;;19.40;64.50;;;;;;5062002;28;20029;-52
2023/10/20 05:10:37;;;;;;;5.60;3.05;;;19.40;65.20;;;;;;5067665;28;20487;-45
2023/10/20 05:13:03;;;;;;;6.38;3.28;;;19.50;65.10;;;;;;5071336;28;20031;-47
2023/10/20 05:15:32;;;;;;;6.40;3.40;;;19.40;65.10;;;;;;5063032;28;20025;-52
2023/10/20 05:17:58;;;;;;;7.45;3.10;;;19.40;65.00;;;;;;5070193;28;20059;-49
2023/10/20 05:20:25;;;;;;;6.32;3.10;;;19.40;65.40;;;;;;5063300;28;20056;-47
2023/10/20 05:22:51;;;;;;;6.32;3.22;;;19.40;65.20;;;;;;5070028;28;20032;-46
2023/10/20 05:25:17;;;;;;;9.07;3.80;;;19.40;65.30;;;;;;5064325;28;20035;-53
2023/10/20 05:27:43;;;;;;;6.93;3.58;;;19.40;65.30;;;;;;5062607;28;20016;-51
2023/10/20 05:30:09;;;;;;;6.60;3.53;;;19.40;65.10;;;;;;5061493;28;20021;-52
2023/10/20 05:32:37;;;;;;;8.82;4.10;;;19.40;65.40;;;;;;5059751;28;20108;-48
2023/10/20 05:35:04;;;;;;;8.85;3.47;;;19.40;65.00;;;;;;5076162;28;20459;-49
2023/10/20 05:37:31;;;;;;;5.90;3.58;;;19.40;65.10;;;;;;5060961;28;20519;-50
2023/10/20 05:39:57;;;;;;;6.80;3.65;;;19.40;64.90;;;;;;5077066;28;20025;-51
2023/10/20 05:42:23;;;;;;;5.55;3.30;;;19.50;65.10;;;;;;5067767;28;20031;-48
2023/10/20 05:45:02;;;;;;;5.68;3.60;;;19.40;65.00;;;;;;5058376;28;20024;-46
2023/10/20 05:47:31;;;;;;;9.40;4.07;;;19.40;64.60;;;;;;5069511;28;20033;-48
2023/10/20 05:49:59;;;;;;;5.93;3.40;;;19.40;64.60;;;;;;5051458;28;20029;-50
2023/10/20 05:52:25;;;;;;;7.93;3.70;;;19.40;65.00;;;;;;5051103;28;20408;-50
2023/10/20 05:54:52;;;;;;;7.82;4.40;;;19.40;65.30;;;;;;5051145;28;20035;-48
2023/10/20 05:57:17;;;;;;;6.18;3.30;;;19.40;65.00;;;;;;5055237;28;20127;-46
2023/10/20 05:59:45;;;;;;;7.90;3.53;;;19.40;65.00;;;;;;5062837;28;20523;-47
2023/10/20 06:02:11;;;;;;;7.28;3.53;;;19.40;64.70;;;;;;5070940;28;20488;-49
2023/10/20 06:04:37;;;;;;;8.48;4.05;;;19.40;64.70;;;;;;5071132;28;20025;-46
2023/10/20 06:07:04;;;;;;;9.63;4.22;;;19.40;64.90;;;;;;5071138;28;20021;-55
2023/10/20 06:09:30;;;;;;;5.72;3.47;;;19.40;64.70;;;;;;5071538;28;20561;-51
2023/10/20 06:11:56;;;;;;;8.30;4.05;;;19.40;64.60;;;;;;5070079;28;20095;-48
2023/10/20 06:14:23;;;;;;;8.18;4.03;;;19.40;65.10;;;;;;5097569;23;20476;-59
2023/10/20 06:16:50;;;;;;;9.32;5.10;;;19.40;63.40;;;;;;5090877;28;20095;-59
2023/10/20 06:19:15;;;;;;;12.68;4.78;;;19.30;60.80;;;;;;5091291;28;20058;-54
2023/10/20 06:21:45;;;;;;;8.80;4.57;;;19.10;56.60;;;;;;5089752;28;20024;-57
2023/10/20 06:24:14;;;;;;;7.75;4.18;;;19.00;57.40;;;;;;5094523;28;20028;-59
2023/10/20 06:26:40;;;;;;;14.93;4.38;;;19.00;58.50;;;;;;5089885;28;20085;-55
2023/10/20 06:29:26;;;;;;;16.70;3.90;;;19.00;58.30;;;;;;5105838;28;20026;-59
2023/10/20 06:31:58;;;;;;;7.65;4.07;;;19.10;59.00;;;;;;5098651;28;20089;-59
2023/10/20 06:34:24;;;;;;;9.15;4.20;;;19.10;59.90;;;;;;5096406;28;20444;-59
2023/10/20 06:36:59;;;;;;;9.75;4.20;;;19.10;60.40;;;;;;5111198;28;20552;-59
2023/10/20 06:39:26;;;;;;;21.42;5.03;;;19.20;62.80;;;;;;5111352;28;20475;-59
2023/10/20 06:41:52;;;;;;;20.13;5.10;;;19.20;62.30;;;;;;5110817;28;20020;-59
2023/10/20 06:44:25;;;;;;;13.35;5.00;;;19.20;64.00;;;;;;5095311;28;20158;-58
2023/10/20 06:46:52;;;;;;;9.65;4.28;;;19.20;63.40;;;;;;5092756;28;20100;-59
2023/10/20 06:49:18;;;;;;;12.60;4.13;;;19.20;62.60;;;;;;5094673;28;20028;-59
2023/10/20 06:51:46;;;;;;;23.83;4.50;;;19.30;62.80;;;;;;5097271;28;20061;-59
2023/10/20 06:54:12;;;;;;;20.27;4.07;;;19.20;62.40;;;;;;5115026;28;20058;-59
2023/10/20 06:56:38;;;;;;;14.48;3.80;;;19.30;62.70;;;;;;5113792;28;20031;-59
2023/10/20 06:59:04;;;;;;;15.27;4.03;;;19.30;63.20;;;;;;5110335;28;20092;-56
2023/10/20 07:01:33;;;;;;;10.35;4.47;;;19.30;63.50;;;;;;5088450;28;20028;-57
2023/10/20 07:04:00;;;;;;;18.48;4.60;;;19.30;63.90;;;;;;5094901;28;20032;-61
2023/10/20 07:06:26;;;;;;;34.00;4.13;;;19.50;65.40;;;;;;5094875;28;20028;-61
2023/10/20 07:08:52;;;;;;;30.88;4.30;;;19.50;64.50;;;;;;5085327;28;20526;-60
2023/10/20 07:11:17;;;;;;;19.75;4.80;;;19.60;65.30;;;;;;5080450;28;20027;-60
2023/10/20 07:13:46;;;;;;;17.98;4.70;;;19.50;65.60;;;;;;5080152;28;20057;-60
2023/10/20 07:16:12;;;;;;;10.27;4.35;;;19.60;67.40;;;;;;5090317;28;20032;-61
2023/10/20 07:18:38;;;;;;;40.15;6.07;;;19.70;66.80;;;;;;5081108;28;20073;-60
2023/10/20 07:21:04;;;;;;;30.02;5.28;;;19.80;69.30;;;;;;5082809;28;20035;-60
2023/10/20 07:23:31;;;;;;;21.35;4.75;;;19.80;68.50;;;;;;5078958;28;20028;-57
2023/10/20 07:25:57;;;;;;;24.25;5.18;;;19.90;69.80;;;;;;5085824;28;20732;-56
2023/10/20 07:28:23;;;;;;;10.68;4.88;;;19.80;67.10;;;;;;5082243;28;20109;-59
2023/10/20 07:30:49;;;;;;;11.45;4.97;;;19.40;59.20;;;;;;5083391;28;20012;-59
2023/10/20 07:33:16;;;;;;;8.70;4.90;;;19.10;58.20;;;;;;5077097;28;20576;-58
2023/10/20 07:35:42;;;;;;;9.25;5.10;;;18.70;57.10;;;;;;5088155;28;20119;-58
2023/10/20 07:38:08;;;;;;;8.95;4.53;;;18.70;55.80;;;;;;5088856;28;20084;-58
2023/10/20 07:40:37;;;;;;;9.32;4.70;;;18.50;56.60;;;;;;5087262;28;20101;-60
2023/10/20 07:43:06;;;;;;;7.95;4.40;;;18.70;57.50;;;;;;5072094;28;20031;-59
2023/10/20 07:45:41;;;;;;;6.57;3.85;;;18.80;58.60;;;;;;5082465;28;20402;-59
2023/10/20 07:48:07;;;;;;;8.07;3.78;;;19.00;58.80;;;;;;5086272;28;20031;-59
2023/10/20 07:50:33;;;;;;;6.85;3.88;;;19.10;58.70;;;;;;5088802;28;20526;-58
2023/10/20 07:52:59;;;;;;;8.75;3.92;;;19.30;59.30;;;;;;5084989;28;20032;-59
2023/10/20 07:55:25;;;;;;;8.43;3.92;;;19.30;59.50;;;;;;5084036;28;20107;-59
2023/10/20 07:57:51;;;;;;;8.70;4.13;;;19.40;59.50;;;;;;5089094;28;20032;-59
2023/10/20 08:00:18;;;;;;;6.50;3.70;;;19.40;59.70;;;;;;5086802;28;20403;-60
2023/10/20 08:02:44;;;;;;;6.35;3.53;;;19.40;60.00;;;;;;5089753;28;20451;-59
2023/10/20 08:05:10;;;;;;;5.80;3.42;;;19.40;60.30;;;;;;5088966;28;20127;-59
2023/10/20 08:07:38;;;;;;;7.65;3.50;;;19.40;60.40;;;;;;5087402;28;20024;-60
2023/10/20 08:10:07;;;;;;;7.13;3.72;;;19.50;60.50;;;;;;5089699;28;20070;-59
2023/10/20 08:12:33;;;;;;;6.55;3.75;;;19.50;60.70;;;;;;5084562;28;20074;-59
2023/10/20 08:14:59;;;;;;;6.25;3.30;;;19.50;60.90;;;;;;5089662;28;20548;-59
2023/10/20 08:17:25;;;;;;;9.45;3.63;;;19.50;61.20;;;;;;5087726;28;20036;-59
2023/10/20 08:19:51;;;;;;;9.45;4.20;;;19.50;61.00;;;;;;5089823;28;20107;-58
2023/10/20 08:22:16;;;;;;;11.90;3.88;;;19.50;61.20;;;;;;5088665;28;20085;-59
2023/10/20 08:24:42;;;;;;;9.02;3.13;;;19.50;61.30;;;;;;5089552;28;20123;-58
2023/10/20 08:27:08;;;;;;;6.35;3.55;;;19.60;61.50;;;;;;5089951;28;20103;-59
2023/10/20 08:29:34;;;;;;;9.63;3.38;;;19.50;61.60;;;;;;5088123;28;20028;-59
2023/10/20 08:31:59;;;;;;;8.70;3.53;;;19.60;61.60;;;;;;5089580;28;20024;-59
2023/10/20 08:34:25;;;;;;;9.15;3.88;;;19.60;62.20;;;;;;5089112;28;20032;-58
2023/10/20 08:36:51;;;;;;;6.50;3.58;;;19.60;62.30;;;;;;5090211;28;20034;-58
2023/10/20 08:39:20;;;;;;;8.38;3.80;;;19.60;62.20;;;;;;5088430;28;20024;-59
2023/10/20 08:41:46;;;;;;;7.97;3.40;;;19.60;62.40;;;;;;5087507;28;20540;-59
2023/10/20 08:44:14;;;;;;;15.85;4.10;;;19.60;62.50;;;;;;5087752;28;20024;-56
2023/10/20 08:46:42;;;;;;;9.25;3.70;;;19.60;62.50;;;;;;5087907;28;20031;-59
2023/10/20 08:49:09;;;;;;;9.95;3.78;;;19.70;62.70;;;;;;5090209;28;20020;-58
2023/10/20 08:51:38;;;;;;;11.13;3.63;;;19.60;62.70;;;;;;5088805;28;20415;-58
2023/10/20 08:54:07;;;;;;;10.10;3.88;;;19.70;62.80;;;;;;5088966;28;20409;-58
2023/10/20 08:56:32;;;;;;;11.73;4.10;;;19.70;63.00;;;;;;5087608;28;20058;-58
2023/10/20 08:58:58;;;;;;;11.43;4.80;;;19.70;62.90;;;;;;5087437;28;20582;-58
2023/10/20 09:01:24;;;;;;;16.73;5.22;;;19.70;63.00;;;;;;5089870;28;20412;-58
2023/10/20 09:03:54;;;;;;;10.48;4.72;;;19.70;63.30;;;;;;5089792;28;20104;-57
2023/10/20 09:06:24;;;;;;;11.43;4.70;;;19.70;63.20;;;;;;5088286;28;20453;-57
2023/10/20 09:08:50;;;;;;;13.65;5.28;;;19.70;63.10;;;;;;5089923;28;20062;-55
2023/10/20 09:11:18;;;;;;;10.13;4.90;;;19.70;63.00;;;;;;5089624;28;20501;-58
2023/10/20 09:13:44;;;;;;;16.63;6.25;;;19.70;63.00;;;;;;5089537;28;20107;-56
2023/10/20 09:16:13;;;;;;;16.80;6.18;;;19.70;63.20;;;;;;5089834;28;20411;-57
2023/10/20 09:18:52;;;;;;;21.05;7.18;;;19.70;63.20;;;;;;5087806;28;20031;-58
2023/10/20 09:21:24;;;;;;;19.40;5.28;;;19.70;63.30;;;;;;5089429;28;20031;-57
2023/10/20 09:24:11;;;;;;;23.85;6.35;;;19.70;63.20;;;;;;5089507;28;20042;-58
2023/10/20 09:26:38;;;;;;;25.38;6.95;;;19.70;63.50;;;;;;5089689;28;20100;-56
2023/10/20 09:29:06;;;;;;;25.77;7.57;;;19.70;63.60;;;;;;5089374;28;20107;-57
2023/10/20 09:31:33;;;;;;;27.13;7.22;;;19.80;63.90;;;;;;5089094;28;20142;-58
2023/10/20 09:33:59;;;;;;;20.77;7.20;;;19.90;64.10;;;;;;5089233;28;20048;-57
2023/10/20 09:36:29;;;;;;;16.83;6.43;;;19.90;64.40;;;;;;5089453;28;20028;-57
2023/10/20 09:38:56;;;;;;;27.08;8.23;;;19.90;63.90;;;;;;5089095;28;20062;-57
2023/10/20 09:41:27;;;;;;;125.45;58.22;;;19.90;64.90;;;;;;5089169;28;20032;-58
2023/10/20 09:44:02;;;;;;;121.82;58.88;;;19.90;64.50;;;;;;5074552;28;20028;-59
2023/10/20 09:46:53;;;;;;;77.78;37.38;;;19.90;63.70;;;;;;5085123;28;20035;-58
2023/10/20 09:49:22;;;;;;;92.50;44.92;;;19.90;63.80;;;;;;5088035;28;20529;-57
2023/10/20 09:51:49;;;;;;;86.00;39.72;;;19.90;63.50;;;;;;5088467;28;20016;-55
2023/10/20 09:54:18;;;;;;;83.15;37.97;;;20.00;63.80;;;;;;5088816;28;20024;-58
2023/10/20 09:56:45;;;;;;;67.25;32.55;;;20.00;63.70;;;;;;5089072;28;21146;-59
2023/10/20 09:59:21;;;;;;;76.13;33.17;;;20.00;63.50;;;;;;5088966;28;20395;-58
2023/10/20 10:01:48;;;;;;;70.45;34.92;;;20.10;63.60;;;;;;5088903;28;20432;-58
2023/10/20 10:04:14;;;;;;;64.63;30.73;;;20.00;63.60;;;;;;5088739;28;20024;-58
2023/10/20 10:06:43;;;;;;;63.15;30.13;;;20.00;63.50;;;;;;5088963;28;20035;-58
2023/10/20 10:09:10;;;;;;;65.30;31.90;;;20.00;63.50;;;;;;5088857;28;20024;-58
2023/10/20 10:11:43;;;;;;;57.38;27.73;;;20.00;63.60;;;;;;5088755;28;20084;-58
2023/10/20 10:14:19;;;;;;;60.55;28.02;;;20.00;63.50;;;;;;5088760;28;20036;-59
2023/10/20 10:16:55;;;;;;;54.45;27.52;;;20.10;63.50;;;;;;5088953;28;20043;-58
2023/10/20 10:19:25;;;;;;;55.30;27.63;;;20.10;63.60;;;;;;5085499;28;20111;-59
2023/10/20 10:21:59;;;;;;;60.05;27.73;;;20.10;63.70;;;;;;5086373;28;20488;-58
2023/10/20 10:24:25;;;;;;;60.92;26.02;;;20.10;63.60;;;;;;5081359;28;20024;-59
2023/10/20 10:26:57;;;;;;;59.83;27.67;;;20.10;63.70;;;;;;5091261;28;20028;-59
2023/10/20 10:29:49;;;;;;;51.63;24.67;;;20.10;63.70;;;;;;5071045;28;20048;-59
2023/10/20 10:32:18;;;;;;;51.80;24.98;;;20.10;63.70;;;;;;5079425;28;20028;-59
2023/10/20 10:34:45;;;;;;;50.20;24.90;;;20.10;63.70;;;;;;5091669;28;20032;-58
2023/10/20 10:37:12;;;;;;;48.08;22.65;;;20.10;63.60;;;;;;5086285;28;20090;-58
2023/10/20 10:39:38;;;;;;;49.00;22.20;;;20.10;63.70;;;;;;5091707;28;20099;-59
2023/10/20 10:42:05;;;;;;;49.17;23.60;;;20.10;63.70;;;;;;5088894;28;20115;-58
2023/10/20 10:44:33;;;;;;;48.83;23.05;;;20.10;63.70;;;;;;5089324;28;20032;-59
2023/10/20 10:47:03;;;;;;;42.83;20.25;;;20.20;63.70;;;;;;5086257;28;20024;-60
2023/10/20 10:49:31;;;;;;;47.20;22.15;;;20.20;63.70;;;;;;5091332;28;20028;-57
2023/10/20 10:51:57;;;;;;;48.08;22.17;;;20.20;63.80;;;;;;5085803;28;20085;-58
2023/10/20 10:54:24;;;;;;;44.88;20.52;;;20.10;63.70;;;;;;5085301;28;20029;-58
2023/10/20 10:56:50;;;;;;;42.80;20.35;;;20.20;63.90;;;;;;5091377;28;20069;-58
2023/10/20 10:59:16;;;;;;;39.53;19.80;;;20.20;63.80;;;;;;5087137;28;20373;-59
2023/10/20 11:01:42;;;;;;;43.25;20.52;;;20.20;63.80;;;;;;5086731;28;20104;-58
2023/10/20 11:04:10;;;;;;;43.92;20.52;;;20.20;63.80;;;;;;5091265;28;20028;-58
2023/10/20 11:06:38;;;;;;;41.20;19.77;;;20.10;63.70;;;;;;5086984;28;20032;-58
2023/10/20 11:09:11;;;;;;;41.42;19.08;;;20.20;63.80;;;;;;5090160;28;20025;-58
2023/10/20 11:11:59;;;;;;;39.47;18.75;;;20.10;63.70;;;;;;5089912;28;20032;-58
2023/10/20 11:14:25;;;;;;;39.22;19.70;;;20.20;63.80;;;;;;5071926;28;20119;-57
2023/10/20 11:16:51;;;;;;;40.90;17.40;;;20.20;63.70;;;;;;5091146;28;20099;-58
2023/10/20 11:19:17;;;;;;;38.50;18.55;;;20.10;63.70;;;;;;5080764;28;20025;-54
2023/10/20 11:21:51;;;;;;;35.67;17.40;;;20.20;63.70;;;;;;5088367;28;20100;-59
2023/10/20 11:24:34;;;;;;;38.63;18.33;;;20.20;63.70;;;;;;5089659;28;20416;-58
2023/10/20 11:27:01;;;;;;;38.15;17.05;;;20.20;63.70;;;;;;5075787;28;20085;-58
2023/10/20 11:29:28;;;;;;;33.88;17.38;;;20.20;63.70;;;;;;5079666;28;20099;-59
2023/10/20 11:31:56;;;;;;;39.83;16.90;;;20.20;63.70;;;;;;5086685;28;20028;-58
2023/10/20 11:34:23;;;;;;;32.45;15.93;;;20.20;63.70;;;;;;5087260;28;20507;-59
2023/10/20 11:36:48;;;;;;;35.15;16.50;;;20.20;63.70;;;;;;5090730;28;20023;-58
2023/10/20 11:39:15;;;;;;;31.38;15.55;;;20.20;63.70;;;;;;5088650;28;20403;-58
2023/10/20 11:41:42;;;;;;;30.52;15.45;;;20.20;63.70;;;;;;5071810;28;20527;-58
2023/10/20 11:44:08;;;;;;;33.67;15.23;;;20.20;63.70;;;;;;5090477;28;20111;-60
2023/10/20 11:46:34;;;;;;;31.25;15.27;;;20.20;63.70;;;;;;5086499;28;20445;-60
2023/10/20 11:49:00;;;;;;;32.55;15.25;;;20.20;63.60;;;;;;5086373;28;20028;-60
2023/10/20 11:51:25;;;;;;;31.13;15.25;;;20.20;63.60;;;;;;5087176;28;20021;-59
2023/10/20 11:53:52;;;;;;;30.52;14.23;;;20.20;63.60;;;;;;5072888;28;20058;-59
2023/10/20 11:56:18;;;;;;;31.05;14.60;;;20.20;63.60;;;;;;5089255;28;20499;-59
2023/10/20 11:58:44;;;;;;;32.45;14.43;;;20.20;63.70;;;;;;5086558;28;20034;-60
2023/10/20 12:01:11;;;;;;;29.80;14.15;;;20.20;63.60;;;;;;5090277;28;20028;-59
2023/10/20 12:03:37;;;;;;;29.73;13.65;;;20.20;63.60;;;;;;5085479;28;20028;-58
2023/10/20 12:06:03;;;;;;;28.17;13.48;;;20.30;63.70;;;;;;5087273;28;20055;-60
2023/10/20 12:08:29;;;;;;;30.83;13.75;;;20.20;63.60;;;;;;5087729;28;20487;-60
2023/10/20 12:10:56;;;;;;;28.77;13.48;;;20.20;63.60;;;;;;5084568;28;20056;-60
2023/10/20 12:13:23;;;;;;;24.42;12.05;;;20.20;63.80;;;;;;5089420;28;20483;-60
2023/10/20 12:15:49;;;;;;;27.63;13.40;;;20.20;63.70;;;;;;5085647;28;20510;-59
2023/10/20 12:18:15;;;;;;;26.73;12.10;;;20.30;63.60;;;;;;5087520;28;20032;-60
2023/10/20 12:20:41;;;;;;;24.42;12.63;;;20.20;63.60;;;;;;5088376;28;20063;-60
2023/10/20 12:23:07;;;;;;;23.77;11.60;;;20.20;63.60;;;;;;5086414;28;20032;-56
2023/10/20 12:25:33;;;;;;;28.55;12.15;;;20.20;63.60;;;;;;5090253;28;20024;-60
2023/10/20 12:28:00;;;;;;;22.65;11.75;;;20.20;63.50;;;;;;5090842;28;20020;-60
2023/10/20 12:30:26;;;;;;;21.90;11.30;;;20.30;63.50;;;;;;5084978;28;20028;-59
2023/10/20 12:32:53;;;;;;;22.40;11.30;;;20.20;63.60;;;;;;5082053;28;20020;-59
2023/10/20 12:35:19;;;;;;;30.80;10.55;;;20.20;63.50;;;;;;5088336;28;20067;-59
2023/10/20 12:37:46;;;;;;;25.13;10.90;;;20.20;63.70;;;;;;5086702;28;20060;-58
2023/10/20 12:40:13;;;;;;;23.77;11.55;;;20.20;63.70;;;;;;5088295;28;20036;-59
2023/10/20 12:42:40;;;;;;;21.73;10.52;;;20.20;63.60;;;;;;5085572;28;20376;-58
2023/10/20 12:45:09;;;;;;;26.05;10.35;;;20.20;63.70;;;;;;5077895;28;20081;-59
2023/10/20 12:47:38;;;;;;;22.40;9.97;;;20.30;63.80;;;;;;5087091;28;20024;-57
2023/10/20 12:50:06;;;;;;;21.30;10.13;;;20.30;63.80;;;;;;5090311;28;20036;-59
2023/10/20 12:52:32;;;;;;;23.40;9.88;;;20.30;63.70;;;;;;5090124;28;20020;-59
2023/10/20 12:54:58;;;;;;;25.02;10.70;;;20.30;63.70;;;;;;5089651;28;20016;-57
2023/10/20 12:57:23;;;;;;;21.48;10.05;;;20.30;63.70;;;;;;5089532;28;20399;-59
2023/10/20 12:59:50;;;;;;;23.00;10.52;;;20.30;63.60;;;;;;5090017;28;20391;-56
2023/10/20 13:02:16;;;;;;;24.27;9.98;;;20.30;63.60;;;;;;5088724;28;20055;-59
2023/10/20 13:04:42;;;;;;;22.52;10.27;;;20.30;63.60;;;;;;5088993;28;20032;-56
2023/10/20 13:07:07;;;;;;;21.15;9.60;;;20.30;63.60;;;;;;5088538;28;20157;-57
2023/10/20 13:09:33;;;;;;;19.20;9.30;;;20.30;63.50;;;;;;5089425;28;20031;-55
2023/10/20 13:11:59;;;;;;;21.58;9.90;;;20.40;63.60;;;;;;5089441;28;20483;-59
2023/10/20 13:14:26;;;;;;;20.75;8.95;;;20.30;63.60;;;;;;5089369;28;20051;-59
2023/10/20 13:16:52;;;;;;;19.30;8.95;;;20.40;63.60;;;;;;5089839;28;20055;-57
2023/10/20 13:19:18;;;;;;;21.35;8.90;;;20.30;63.60;;;;;;5090040;28;20047;-59